createdAt,value
2023-02-11T00:00:43.462Z,39.90
2023-02-11T00:03:46.164Z,36.78
2023-02-11T00:06:47.539Z,39.67
2023-02-11T00:09:50.771Z,39.93
2023-02-11T00:12:52.075Z,39.43
2023-02-11T00:15:55.870Z,35.65
2023-02-11T00:18:59.130Z,40.47
2023-02-11T00:22:01.685Z,40.08
2023-02-11T00:25:05.442Z,35.97
2023-02-11T00:28:06.890Z,36.83
2023-02-11T00:31:09.740Z,37.45
2023-02-11T00:34:11.108Z,38.75
2023-02-11T00:37:12.901Z,37.10
2023-02-11T00:40:16.562Z,38.43
2023-02-11T00:43:17.899Z,37.90
2023-02-11T00:46:21.002Z,39.95
2023-02-11T00:52:44.290Z,34.75
2023-02-11T00:55:47.670Z,38.77
2023-02-11T00:58:49.303Z,35.97
2023-02-11T01:01:51.844Z,36.80
2023-02-11T01:04:54.555Z,34.35
2023-02-11T01:07:55.943Z,36.10
2023-02-11T01:11:00.226Z,37.63
2023-02-11T01:14:02.019Z,43.63
2023-02-11T01:17:06.243Z,40.33
2023-02-11T01:20:14.605Z,40.15
2023-02-11T01:23:17.163Z,40.17
2023-02-11T01:26:20.604Z,35.87
2023-02-11T01:29:21.878Z,39.00
2023-02-11T01:32:24.478Z,40.60
2023-02-11T01:35:25.739Z,35.65
2023-02-11T01:38:28.255Z,38.35
2023-02-11T01:41:31.630Z,39.40
2023-02-11T01:44:35.618Z,39.47
2023-02-11T01:47:38.181Z,41.90
2023-02-11T01:50:42.596Z,34.60
2023-02-11T01:54:05.710Z,38.50
2023-02-11T01:57:25.393Z,35.13
2023-02-11T02:00:31.792Z,36.40
2023-02-11T02:03:37.389Z,40.80
2023-02-11T02:06:48.725Z,42.20
2023-02-11T02:09:59.661Z,42.47
2023-02-11T02:13:01.606Z,36.90
2023-02-11T02:16:09.483Z,37.40
2023-02-11T02:19:57.048Z,37.08
2023-02-11T02:23:31.552Z,38.58
2023-02-11T02:26:53.738Z,40.33
2023-02-11T02:30:13.090Z,39.57
2023-02-11T02:33:37.365Z,40.80
2023-02-11T02:36:46.361Z,38.38
2023-02-11T02:39:50.018Z,36.88
2023-02-11T02:42:54.654Z,40.47
2023-02-11T02:46:08.633Z,38.20
2023-02-11T02:49:14.619Z,40.03
2023-02-11T02:52:29.273Z,40.40
2023-02-11T02:55:41.185Z,34.03
2023-02-11T02:58:55.993Z,35.78
2023-02-11T03:02:08.387Z,41.13
2023-02-11T03:05:19.439Z,36.33
2023-02-11T03:08:27.838Z,37.95
2023-02-11T03:11:30.493Z,41.58
2023-02-11T03:14:34.614Z,36.10
2023-02-11T03:17:39.104Z,39.67
2023-02-11T03:20:45.434Z,37.80
2023-02-11T03:23:51.152Z,39.45
2023-02-11T03:26:55.653Z,36.88
2023-02-11T03:33:33.317Z,40.80
2023-02-11T03:40:11.025Z,40.58
2023-02-11T03:43:17.280Z,38.15
2023-02-11T03:46:24.619Z,38.42
2023-02-11T03:49:27.200Z,38.90
2023-02-11T03:52:31.509Z,42.37
2023-02-11T03:55:37.743Z,41.08
2023-02-11T03:58:39.026Z,41.72
2023-02-11T04:01:41.886Z,41.72
2023-02-11T04:04:43.668Z,42.93
2023-02-11T04:07:46.855Z,41.73
2023-02-11T04:10:48.143Z,42.35
2023-02-11T04:13:50.733Z,41.08
2023-02-11T04:16:53.251Z,40.75
2023-02-11T04:19:54.610Z,42.90
2023-02-11T04:22:57.807Z,45.10
2023-02-11T04:25:59.197Z,41.72
2023-02-11T04:29:01.740Z,41.58
2023-02-11T04:32:04.466Z,39.92
2023-02-11T04:35:06.496Z,41.30
2023-02-11T04:38:09.707Z,46.73
2023-02-11T04:41:11.034Z,41.78
2023-02-11T04:44:13.692Z,48.30
2023-02-11T04:47:16.350Z,44.92
2023-02-11T04:50:17.916Z,42.53
2023-02-11T04:53:21.229Z,45.63
2023-02-11T04:56:22.613Z,38.15
2023-02-11T04:59:25.500Z,47.85
2023-02-11T05:02:28.225Z,47.10
2023-02-11T05:05:29.512Z,45.50
2023-02-11T05:08:33.335Z,46.17
2023-02-11T05:11:35.914Z,48.47
2023-02-11T05:14:38.424Z,49.92
2023-02-11T05:17:40.960Z,44.28
2023-02-11T05:20:43.225Z,51.70
2023-02-11T05:23:47.106Z,44.23
2023-02-11T05:26:48.402Z,51.78
2023-02-11T05:29:50.994Z,46.33
2023-02-11T05:32:52.308Z,54.05
2023-02-11T05:35:58.257Z,48.40
2023-02-11T05:39:00.213Z,46.87
2023-02-11T05:42:02.786Z,51.53
2023-02-11T05:45:05.878Z,51.20
2023-02-11T05:51:29.348Z,44.77
2023-02-11T05:54:33.660Z,49.20
2023-02-11T05:57:36.373Z,50.05
2023-02-11T06:00:39.111Z,56.58
2023-02-11T06:03:40.466Z,52.35
2023-02-11T06:06:43.009Z,48.97
2023-02-11T06:09:45.060Z,51.77
2023-02-11T06:12:47.628Z,51.08
2023-02-11T06:15:57.134Z,49.70
2023-02-11T06:18:58.439Z,53.10
2023-02-11T06:22:01.018Z,55.33
2023-02-11T06:25:04.617Z,57.23
2023-02-11T06:28:06.024Z,56.00
2023-02-11T06:31:10.195Z,52.38
2023-02-11T06:34:12.859Z,52.15
2023-02-11T06:37:14.188Z,55.00
2023-02-11T06:40:17.588Z,55.60
2023-02-11T06:43:18.920Z,57.60
2023-02-11T06:46:21.556Z,59.00
2023-02-11T06:49:24.101Z,56.58
2023-02-11T06:52:25.488Z,62.40
2023-02-11T06:55:28.988Z,58.90
2023-02-11T06:58:30.282Z,57.63
2023-02-11T07:01:33.084Z,60.72
2023-02-11T07:04:34.393Z,57.40
2023-02-11T07:07:37.196Z,56.43
2023-02-11T07:10:40.635Z,59.53
2023-02-11T07:13:42.605Z,61.45
2023-02-11T07:16:45.243Z,64.05
2023-02-11T07:19:46.538Z,62.42
2023-02-11T07:22:49.102Z,57.03
2023-02-11T07:25:51.245Z,57.90
2023-02-11T07:28:54.316Z,61.25
2023-02-11T07:31:56.837Z,54.38
2023-02-11T07:34:58.402Z,63.08
2023-02-11T07:38:00.909Z,62.10
2023-02-11T07:41:04.373Z,52.97
2023-02-11T07:44:07.526Z,59.13
2023-02-11T07:47:10.038Z,59.45
2023-02-11T07:50:11.330Z,57.30
2023-02-11T07:53:15.767Z,54.00
2023-02-11T07:56:20.978Z,54.73
2023-02-11T07:59:24.092Z,57.10
2023-02-11T08:02:26.779Z,59.10
2023-02-11T08:05:28.067Z,54.58
2023-02-11T08:08:30.609Z,54.57
2023-02-11T08:11:33.958Z,58.37
2023-02-11T08:14:35.475Z,59.40
2023-02-11T08:17:38.054Z,55.90
2023-02-11T08:20:39.372Z,55.05
2023-02-11T08:23:43.774Z,56.27
2023-02-11T08:26:45.728Z,59.07
2023-02-11T08:29:48.312Z,58.10
2023-02-11T08:32:50.861Z,51.97
2023-02-11T08:35:52.249Z,59.38
2023-02-11T08:39:05.671Z,57.87
2023-02-11T08:42:16.242Z,54.67
2023-02-11T08:45:17.660Z,57.72
2023-02-11T08:48:20.208Z,57.75
2023-02-11T08:51:23.512Z,52.55
2023-02-11T08:54:26.150Z,52.77
2023-02-11T08:57:29.412Z,52.23
2023-02-11T09:00:31.230Z,54.25
2023-02-11T09:03:33.878Z,50.75
2023-02-11T09:06:35.184Z,52.22
2023-02-11T09:09:37.842Z,50.77
2023-02-11T09:12:39.931Z,53.30
2023-02-11T09:15:46.039Z,50.85
2023-02-11T09:18:49.526Z,52.50
2023-02-11T09:21:50.874Z,52.47
2023-02-11T09:24:53.506Z,52.33
2023-02-11T09:27:56.789Z,48.43
2023-02-11T09:30:58.180Z,47.13
2023-02-11T09:34:03.148Z,52.78
2023-02-11T09:37:04.420Z,54.63
2023-02-11T09:40:07.787Z,49.97
2023-02-11T09:43:16.185Z,53.40
2023-02-11T09:46:19.377Z,50.70
2023-02-11T09:49:26.847Z,49.28
2023-02-11T09:52:37.016Z,47.30
2023-02-11T09:55:43.588Z,46.03
2023-02-11T09:58:46.435Z,47.77
2023-02-11T10:01:54.295Z,47.78
2023-02-11T10:05:26.960Z,47.28
2023-02-11T10:08:34.590Z,49.38
2023-02-11T10:11:47.045Z,50.07
2023-02-11T10:15:04.488Z,42.90
2023-02-11T10:18:34.205Z,41.38
2023-02-11T10:21:47.145Z,42.55
2023-02-11T10:24:52.300Z,47.90
2023-02-11T10:27:59.905Z,42.93
2023-02-11T10:31:07.815Z,42.27
2023-02-11T10:34:10.711Z,42.75
2023-02-11T10:37:14.775Z,41.33
2023-02-11T10:40:18.243Z,44.10
2023-02-11T10:43:25.099Z,45.00
2023-02-11T10:46:32.133Z,44.13
2023-02-11T10:53:20.951Z,39.65
2023-02-11T10:56:26.823Z,38.30
2023-02-11T10:59:32.215Z,39.50
2023-02-11T11:02:38.036Z,39.93
2023-02-11T11:05:49.440Z,41.67
2023-02-11T11:08:52.767Z,39.67
2023-02-11T11:11:55.274Z,43.65
2023-02-11T11:14:58.965Z,40.43
2023-02-11T11:18:21.934Z,43.17
2023-02-11T11:21:25.696Z,42.42
2023-02-11T11:24:30.887Z,41.85
2023-02-11T11:27:32.539Z,40.38
2023-02-11T11:30:42.421Z,37.67
2023-02-11T11:33:46.475Z,38.80
2023-02-11T11:36:50.795Z,39.53
2023-02-11T11:39:56.844Z,32.90
2023-02-11T11:43:15.905Z,36.95
2023-02-11T11:46:23.596Z,35.80
2023-02-11T11:49:33.764Z,34.23
2023-02-11T11:52:45.921Z,29.88
2023-02-11T11:55:59.669Z,35.88
2023-02-11T11:59:10.039Z,33.40
2023-02-11T12:02:46.406Z,30.87
2023-02-11T12:05:59.836Z,36.20
2023-02-11T12:09:10.733Z,29.40
2023-02-11T12:12:27.158Z,30.70
2023-02-11T12:15:36.944Z,32.30
2023-02-11T12:19:04.742Z,26.17
2023-02-11T12:22:12.084Z,28.87
2023-02-11T12:25:25.438Z,28.30
2023-02-11T12:28:41.656Z,29.00
2023-02-11T12:31:56.040Z,27.50
2023-02-11T12:39:02.972Z,30.93
2023-02-11T12:42:46.152Z,28.77
2023-02-11T12:46:12.766Z,25.98
2023-02-11T12:49:40.926Z,28.27
2023-02-11T12:53:00.786Z,25.50
2023-02-11T12:56:07.854Z,24.77
2023-02-11T13:02:46.853Z,26.65
2023-02-11T13:05:52.285Z,24.33
2023-02-11T13:09:00.783Z,24.87
2023-02-11T13:12:27.950Z,24.87
2023-02-11T13:15:31.703Z,24.65
2023-02-11T13:18:44.757Z,24.60
2023-02-11T13:22:09.937Z,25.95
2023-02-11T13:25:21.334Z,24.00
2023-02-11T13:28:36.982Z,25.07
2023-02-11T13:31:38.511Z,23.40
2023-02-11T13:35:00.251Z,23.35
2023-02-11T13:38:03.272Z,25.45
2023-02-11T13:41:21.293Z,23.40
2023-02-11T13:44:27.549Z,24.87
2023-02-11T13:47:31.207Z,23.50
2023-02-11T13:50:38.993Z,25.95
2023-02-11T13:53:48.813Z,24.27
2023-02-11T13:57:24.563Z,23.67
2023-02-11T14:00:47.861Z,22.10
2023-02-11T14:04:48.801Z,23.10
2023-02-11T14:08:38.788Z,24.48
2023-02-11T14:11:49.546Z,19.73
2023-02-11T14:15:20.578Z,22.87
2023-02-11T14:18:38.577Z,23.87
2023-02-11T14:21:44.188Z,18.60
2023-02-11T14:24:50.241Z,25.13
2023-02-11T14:27:57.559Z,21.83
2023-02-11T14:31:07.159Z,21.00
2023-02-11T14:34:31.415Z,24.30
2023-02-11T14:37:50.444Z,22.65
2023-02-11T14:41:00.957Z,20.45
2023-02-11T14:44:07.195Z,19.83
2023-02-11T14:47:18.233Z,19.43
2023-02-11T14:50:24.715Z,19.67
2023-02-11T14:53:31.371Z,22.40
2023-02-11T14:56:33.699Z,20.73
2023-02-11T14:59:36.757Z,21.08
2023-02-11T15:02:38.817Z,18.97
2023-02-11T15:05:42.069Z,20.30
2023-02-11T15:08:46.762Z,19.23
2023-02-11T15:11:51.491Z,20.58
2023-02-11T15:14:55.034Z,24.23
2023-02-11T15:18:00.549Z,21.37
2023-02-11T15:21:02.929Z,19.00
2023-02-11T15:24:07.655Z,20.55
2023-02-11T15:27:14.055Z,17.40
2023-02-11T15:30:29.062Z,19.08
2023-02-11T15:33:31.896Z,22.80
2023-02-11T15:36:35.493Z,18.53
2023-02-11T15:39:40.263Z,20.20
2023-02-11T15:42:57.390Z,17.67
2023-02-11T15:46:03.005Z,17.35
2023-02-11T15:49:04.753Z,17.43
2023-02-11T15:52:09.074Z,18.30
2023-02-11T15:55:14.710Z,18.45
2023-02-11T15:58:17.388Z,17.70
2023-02-11T16:01:20.139Z,16.50
2023-02-11T16:04:24.014Z,17.80
2023-02-11T16:07:42.052Z,18.30
2023-02-11T16:10:57.476Z,19.75
2023-02-11T16:14:01.557Z,16.88
2023-02-11T16:17:07.875Z,15.35
2023-02-11T16:20:18.091Z,17.37
2023-02-11T16:23:25.042Z,15.13
2023-02-11T16:26:30.858Z,12.60
2023-02-11T16:29:36.680Z,15.82
2023-02-11T16:32:38.204Z,13.15
2023-02-11T16:35:40.947Z,13.47
2023-02-11T16:38:42.901Z,13.73
2023-02-11T16:41:45.624Z,13.05
2023-02-11T16:44:46.906Z,14.48
2023-02-11T16:47:49.546Z,13.93
2023-02-11T16:50:53.452Z,14.13
2023-02-11T16:53:55.619Z,13.93
2023-02-11T16:56:58.400Z,13.73
2023-02-11T16:59:59.648Z,14.43
2023-02-11T17:03:02.201Z,15.27
2023-02-11T17:06:06.303Z,14.43
2023-02-11T17:09:15.102Z,13.63
2023-02-11T17:12:17.621Z,15.27
2023-02-11T17:15:18.919Z,13.43
2023-02-11T17:18:21.507Z,15.90
2023-02-11T17:21:28.755Z,13.52
2023-02-11T17:24:32.052Z,13.05
2023-02-11T17:27:34.936Z,14.02
2023-02-11T17:30:38.406Z,13.20
2023-02-11T17:33:41.062Z,14.07
2023-02-11T17:40:04.679Z,12.02
2023-02-11T17:43:07.280Z,12.90
2023-02-11T17:46:09.266Z,12.87
2023-02-11T17:49:12.212Z,11.57
2023-02-11T17:52:13.476Z,11.32
2023-02-11T17:55:15.519Z,12.68
2023-02-11T17:58:18.083Z,10.98
2023-02-11T18:01:19.607Z,11.47
2023-02-11T18:04:22.443Z,11.10
2023-02-11T18:07:25.824Z,10.05
2023-02-11T18:10:27.998Z,13.65
2023-02-11T18:13:30.930Z,14.73
2023-02-11T18:16:34.177Z,10.53
2023-02-11T18:19:38.042Z,10.23
2023-02-11T18:22:40.228Z,10.85
2023-02-11T18:25:43.437Z,10.82
2023-02-11T18:28:46.521Z,11.18
2023-02-11T18:31:49.108Z,10.70
2023-02-11T18:34:51.658Z,11.60
2023-02-11T18:37:54.246Z,10.30
2023-02-11T18:40:57.936Z,10.55
2023-02-11T18:44:03.470Z,12.40
2023-02-11T18:47:04.830Z,10.60
2023-02-11T18:50:09.829Z,11.27
2023-02-11T18:53:14.181Z,11.98
2023-02-11T18:56:18.540Z,11.38
2023-02-11T18:59:21.094Z,10.70
2023-02-11T19:02:24.077Z,11.67
2023-02-11T19:08:50.198Z,11.48
2023-02-11T19:11:53.345Z,11.52
2023-02-11T19:14:55.854Z,11.43
2023-02-11T19:17:57.109Z,11.93
2023-02-11T19:20:59.678Z,10.67
2023-02-11T19:24:07.538Z,11.75
2023-02-11T19:27:10.043Z,11.80
2023-02-11T19:30:13.339Z,12.40
2023-02-11T19:33:14.628Z,12.07
2023-02-11T19:36:17.765Z,12.40
2023-02-11T19:39:20.281Z,10.80
2023-02-11T19:42:22.237Z,11.32
2023-02-11T19:45:24.833Z,11.60
2023-02-11T19:48:26.087Z,11.57
2023-02-11T19:51:28.879Z,11.60
2023-02-11T19:54:31.390Z,10.57
2023-02-11T19:57:33.357Z,10.93
2023-02-11T20:00:35.874Z,10.93
2023-02-11T20:03:40.789Z,10.40
2023-02-11T20:06:45.470Z,12.00
2023-02-11T20:09:46.795Z,11.98
2023-02-11T20:12:50.171Z,11.30
2023-02-11T20:19:16.822Z,9.90
2023-02-11T20:22:19.416Z,13.60
2023-02-11T20:25:21.979Z,11.20
2023-02-11T20:28:23.962Z,10.00
2023-02-11T20:31:26.633Z,9.55
2023-02-11T20:34:28.640Z,12.70
2023-02-11T20:37:33.510Z,9.57
2023-02-11T20:40:34.806Z,9.23
2023-02-11T20:43:38.356Z,10.75
2023-02-11T20:46:43.584Z,9.85
2023-02-11T20:49:44.946Z,10.90
2023-02-11T20:52:48.893Z,10.27
2023-02-11T20:55:50.445Z,12.32
2023-02-11T20:58:57.427Z,10.02
2023-02-11T21:05:21.298Z,11.73
2023-02-11T21:08:23.917Z,14.47
2023-02-11T21:11:25.186Z,13.27
2023-02-11T21:14:28.675Z,10.02
2023-02-11T21:17:31.189Z,9.95
2023-02-11T21:20:32.502Z,11.07
2023-02-11T21:23:36.210Z,9.17
2023-02-11T21:26:38.233Z,9.00
2023-02-11T21:29:53.446Z,10.45
2023-02-11T21:32:58.546Z,11.90
2023-02-11T21:36:01.742Z,11.83
2023-02-11T21:39:04.676Z,10.43
2023-02-11T21:42:06.001Z,9.65
2023-02-11T21:45:10.567Z,14.68
2023-02-11T21:48:12.633Z,11.55
2023-02-11T21:51:17.616Z,9.40
2023-02-11T21:54:20.596Z,11.13
2023-02-11T21:57:21.898Z,12.45
2023-02-11T22:00:25.467Z,11.02
2023-02-11T22:03:28.611Z,12.77
2023-02-11T22:06:34.134Z,10.23
2023-02-11T22:09:38.988Z,13.83
2023-02-11T22:12:40.324Z,12.80
2023-02-11T22:15:43.514Z,12.77
2023-02-11T22:18:45.544Z,14.13
2023-02-11T22:21:48.069Z,10.13
2023-02-11T22:24:50.829Z,10.77
2023-02-11T22:27:52.154Z,12.52
2023-02-11T22:30:56.348Z,10.98
2023-02-11T22:33:59.828Z,12.70
2023-02-11T22:37:01.899Z,14.97
2023-02-11T22:40:04.849Z,13.00
2023-02-11T22:43:06.184Z,8.82
2023-02-11T22:46:09.715Z,10.90
2023-02-11T22:49:15.091Z,11.32
2023-02-11T22:52:16.539Z,11.73
2023-02-11T22:55:19.102Z,12.60
2023-02-11T22:58:20.398Z,13.55
2023-02-11T23:01:23.598Z,11.57
2023-02-11T23:04:24.860Z,12.25
2023-02-11T23:07:27.378Z,11.67
2023-02-11T23:10:30.251Z,11.37
2023-02-11T23:13:34.535Z,12.70
2023-02-11T23:16:37.793Z,11.23
2023-02-11T23:19:39.241Z,11.18
2023-02-11T23:22:41.780Z,10.57
2023-02-11T23:25:43.728Z,10.27
2023-02-11T23:28:46.936Z,13.80
2023-02-11T23:31:50.617Z,11.45
2023-02-11T23:34:52.251Z,10.60
2023-02-11T23:37:54.922Z,10.88
2023-02-11T23:44:17.122Z,13.75
2023-02-11T23:47:19.116Z,10.50
2023-02-11T23:50:21.810Z,10.02
2023-02-11T23:53:24.330Z,12.80
2023-02-11T23:56:27.119Z,10.47
2023-02-11T23:59:29.662Z,12.93
